Time;durP1;ratioP1;P1;durP2;ratioP2;P2;SDS_P1;SDS_P2;PMS_P1;PMS_P2;Temp;Humidity;BMP_temperature;BMP_pressure;BME280_temperature;BME280_humidity;BME280_pressure;Samples;Min_cycle;Max_cycle;Signal;HPM_P1;HPM_P2
2023/11/21 00:01:51;;;;;;;12.55;5.50;;;7.60;99.90;;;;;;6258279;22;20009;-87
2023/11/21 00:04:17;;;;;;;14.32;6.53;;;7.60;99.90;;;;;;6257568;22;20008;-87
2023/11/21 00:06:46;;;;;;;10.15;5.78;;;7.60;99.90;;;;;;6152747;22;20037;-87
2023/11/21 00:09:15;;;;;;;10.38;6.13;;;7.60;99.90;;;;;;6257114;22;20013;-88
2023/11/21 00:11:42;;;;;;;10.32;5.03;;;7.50;99.90;;;;;;6258294;22;20093;-87
2023/11/21 00:14:15;;;;;;;13.45;6.13;;;7.50;99.90;;;;;;6235598;22;20030;-86
2023/11/21 00:16:44;;;;;;;15.73;6.50;;;7.40;99.90;;;;;;6258133;22;20041;-87
2023/11/21 00:19:10;;;;;;;12.65;6.10;;;7.40;99.90;;;;;;6258231;22;20431;-87
2023/11/21 00:21:35;;;;;;;15.80;5.88;;;7.40;99.90;;;;;;6257646;22;20062;-86
2023/11/21 00:24:01;;;;;;;12.90;6.15;;;7.40;99.90;;;;;;6257679;22;20027;-87
2023/11/21 00:26:28;;;;;;;13.32;6.88;;;7.30;99.90;;;;;;6258732;22;20016;-87
2023/11/21 00:28:53;;;;;;;12.45;6.95;;;7.30;99.90;;;;;;6258249;22;20010;-87
2023/11/21 00:31:19;;;;;;;17.55;7.07;;;7.30;99.90;;;;;;6259489;22;20071;-87
2023/11/21 00:33:45;;;;;;;11.85;5.70;;;7.30;99.90;;;;;;6258668;22;20014;-87
2023/11/21 00:36:11;;;;;;;16.63;6.10;;;7.30;99.90;;;;;;6259103;22;20013;-87
2023/11/21 00:38:39;;;;;;;10.52;5.85;;;7.30;99.90;;;;;;6256255;22;20002;-86
2023/11/21 00:41:06;;;;;;;12.43;6.60;;;7.30;99.90;;;;;;6257031;22;20001;-86
2023/11/21 00:43:33;;;;;;;11.45;6.63;;;7.30;99.90;;;;;;6259663;22;20039;-87
2023/11/21 00:45:59;;;;;;;13.75;5.85;;;7.40;99.90;;;;;;6257890;22;20017;-86
2023/11/21 00:48:25;;;;;;;10.82;5.85;;;7.40;99.90;;;;;;6256699;22;20014;-87
2023/11/21 00:50:50;;;;;;;12.80;6.00;;;7.30;99.90;;;;;;6257758;22;20006;-87
2023/11/21 00:53:17;;;;;;;14.50;6.82;;;7.40;99.90;;;;;;6256892;22;20020;-87
2023/11/21 00:55:42;;;;;;;19.52;6.43;;;7.30;99.90;;;;;;6258638;22;20017;-87
2023/11/21 00:58:09;;;;;;;15.52;7.38;;;7.30;99.90;;;;;;6257431;22;20089;-87
2023/11/21 01:00:34;;;;;;;14.77;6.50;;;7.30;99.90;;;;;;6261199;22;20048;-87
2023/11/21 01:03:00;;;;;;;14.05;7.45;;;7.30;99.90;;;;;;6258230;22;20029;-87
2023/11/21 01:05:26;;;;;;;11.73;6.70;;;7.30;99.90;;;;;;6256447;22;20020;-87
2023/11/21 01:07:52;;;;;;;13.68;6.80;;;7.40;99.90;;;;;;6255751;22;20028;-87
2023/11/21 01:10:18;;;;;;;14.48;7.50;;;7.40;99.90;;;;;;6257563;22;20013;-86
2023/11/21 01:12:44;;;;;;;14.80;6.93;;;7.40;99.90;;;;;;6257301;22;20005;-87
2023/11/21 01:15:12;;;;;;;16.45;6.95;;;7.30;99.90;;;;;;6241799;22;20074;-87
2023/11/21 01:17:38;;;;;;;11.20;6.47;;;7.40;99.90;;;;;;6259692;22;20001;-87
2023/11/21 01:20:12;;;;;;;13.70;6.70;;;7.30;99.90;;;;;;6254836;22;20018;-86
2023/11/21 01:22:38;;;;;;;16.42;7.20;;;7.30;99.90;;;;;;6259274;22;20420;-87
2023/11/21 01:25:07;;;;;;;11.05;6.18;;;7.30;99.90;;;;;;6258956;22;20077;-86
2023/11/21 01:27:34;;;;;;;18.38;7.22;;;7.30;99.90;;;;;;6255580;22;20436;-86
2023/11/21 01:30:00;;;;;;;15.07;7.15;;;7.40;99.90;;;;;;6258032;22;20006;-87
2023/11/21 01:32:26;;;;;;;12.77;6.20;;;7.40;99.90;;;;;;6257458;22;20012;-87
2023/11/21 01:34:51;;;;;;;19.65;7.25;;;7.40;99.90;;;;;;6256272;22;20063;-87
2023/11/21 01:37:17;;;;;;;14.02;7.28;;;7.40;99.90;;;;;;6258128;22;20002;-87
2023/11/21 01:39:47;;;;;;;13.32;7.65;;;7.40;99.90;;;;;;6257687;22;20006;-86
2023/11/21 01:42:12;;;;;;;12.50;6.82;;;7.40;99.90;;;;;;6259002;22;20069;-85
2023/11/21 01:44:39;;;;;;;15.07;7.25;;;7.40;99.90;;;;;;6256132;22;20047;-87
2023/11/21 01:47:06;;;;;;;14.07;7.10;;;7.40;99.90;;;;;;6255953;22;20006;-87
2023/11/21 01:49:33;;;;;;;12.38;7.13;;;7.50;99.90;;;;;;6258945;22;20006;-87
2023/11/21 01:51:59;;;;;;;13.45;6.63;;;7.40;99.90;;;;;;6256455;22;20187;-86
2023/11/21 01:54:36;;;;;;;12.88;6.80;;;7.40;99.90;;;;;;6260895;22;20012;-86
2023/11/21 01:57:06;;;;;;;16.67;6.88;;;7.40;99.90;;;;;;6254852;22;20010;-85
2023/11/21 01:59:41;;;;;;;13.98;6.20;;;7.50;99.90;;;;;;6260858;22;20005;-86
2023/11/21 02:02:09;;;;;;;13.77;6.85;;;7.50;99.90;;;;;;6261500;22;20005;-84
2023/11/21 02:05:12;;;;;;;12.55;6.65;;;7.50;99.90;;;;;;6264286;22;20010;-86
2023/11/21 02:07:39;;;;;;;13.80;6.97;;;7.50;99.90;;;;;;6260562;22;20088;-85
2023/11/21 02:10:07;;;;;;;14.43;6.90;;;7.50;99.90;;;;;;6259954;22;20061;-82
2023/11/21 02:12:35;;;;;;;13.48;5.85;;;7.50;99.90;;;;;;6260487;22;20008;-86
2023/11/21 02:15:04;;;;;;;16.00;6.38;;;7.50;99.90;;;;;;6244237;22;20017;-85
2023/11/21 02:17:32;;;;;;;19.13;6.00;;;7.50;99.90;;;;;;6263957;22;20002;-85
2023/11/21 02:19:59;;;;;;;15.65;5.90;;;7.50;99.90;;;;;;6261339;22;20001;-84
2023/11/21 02:22:30;;;;;;;11.82;6.43;;;7.50;99.90;;;;;;6261110;22;20014;-86
2023/11/21 02:24:57;;;;;;;12.55;6.50;;;7.50;99.90;;;;;;6262579;22;20005;-85
2023/11/21 02:27:24;;;;;;;12.32;6.82;;;7.50;99.90;;;;;;6258866;22;20089;-85
2023/11/21 02:29:50;;;;;;;17.85;6.68;;;7.50;99.90;;;;;;6258722;22;20490;-85
2023/11/21 02:32:18;;;;;;;13.45;6.18;;;7.50;99.90;;;;;;6259038;22;20630;-85
2023/11/21 02:34:44;;;;;;;15.63;6.03;;;7.50;99.90;;;;;;6261058;22;20347;-85
2023/11/21 02:37:10;;;;;;;12.43;6.57;;;7.50;99.90;;;;;;6259481;22;20009;-85
2023/11/21 02:39:36;;;;;;;19.80;7.65;;;7.50;99.90;;;;;;6259830;22;20052;-86
2023/11/21 02:42:02;;;;;;;17.48;7.43;;;7.40;99.90;;;;;;6259841;22;20005;-86
2023/11/21 02:44:28;;;;;;;13.05;6.75;;;7.40;99.90;;;;;;6263196;22;20017;-84
2023/11/21 02:46:53;;;;;;;13.85;6.57;;;7.40;99.90;;;;;;6260611;22;20363;-86
2023/11/21 02:49:19;;;;;;;19.63;7.80;;;7.30;99.90;;;;;;6261593;22;20069;-84
2023/11/21 02:51:45;;;;;;;16.35;7.35;;;7.30;99.90;;;;;;6259626;22;20010;-85
2023/11/21 02:54:11;;;;;;;14.13;6.65;;;7.30;99.90;;;;;;6260210;22;20005;-86
2023/11/21 02:56:37;;;;;;;17.98;7.07;;;7.20;99.90;;;;;;6259907;22;20032;-86
2023/11/21 02:59:03;;;;;;;18.60;6.45;;;7.20;99.90;;;;;;6259655;22;20313;-86
2023/11/21 03:01:29;;;;;;;18.00;6.95;;;7.20;99.90;;;;;;6260557;22;20001;-87
2023/11/21 03:03:55;;;;;;;14.07;7.03;;;7.20;99.90;;;;;;6260104;22;20012;-86
2023/11/21 03:06:21;;;;;;;16.45;7.10;;;7.20;99.90;;;;;;6261360;22;20012;-86
2023/11/21 03:08:47;;;;;;;19.95;7.47;;;7.20;99.90;;;;;;6261119;22;20010;-85
2023/11/21 03:11:14;;;;;;;14.85;8.07;;;7.20;99.90;;;;;;6259501;22;20009;-85
2023/11/21 03:13:41;;;;;;;13.43;6.47;;;7.20;99.90;;;;;;6259382;22;20017;-86
2023/11/21 03:16:10;;;;;;;17.17;7.63;;;7.20;99.90;;;;;;6260502;22;20035;-86
2023/11/21 03:18:37;;;;;;;16.75;6.80;;;7.20;99.90;;;;;;6261631;22;20005;-85
2023/11/21 03:21:03;;;;;;;17.20;8.20;;;7.20;99.90;;;;;;6259690;22;20055;-86
2023/11/21 03:23:29;;;;;;;19.92;7.55;;;7.20;99.90;;;;;;6258933;22;20002;-86
2023/11/21 03:25:55;;;;;;;14.38;7.20;;;7.20;99.90;;;;;;6262440;22;20082;-85
2023/11/21 03:28:20;;;;;;;15.88;7.45;;;7.20;99.90;;;;;;6260406;22;20020;-86
2023/11/21 03:30:47;;;;;;;19.30;8.45;;;7.20;99.90;;;;;;6261593;22;20104;-86
2023/11/21 03:33:12;;;;;;;15.40;7.95;;;7.20;99.90;;;;;;6263844;22;19998;-85
2023/11/21 03:35:38;;;;;;;14.30;7.47;;;7.20;99.90;;;;;;6259478;22;20005;-86
2023/11/21 03:38:04;;;;;;;22.65;9.10;;;7.20;99.90;;;;;;6260193;22;20317;-86
2023/11/21 03:40:31;;;;;;;20.05;8.88;;;7.20;99.90;;;;;;6258682;22;20010;-86
2023/11/21 03:42:57;;;;;;;18.60;8.85;;;7.20;99.90;;;;;;6257635;22;20067;-85
2023/11/21 03:45:23;;;;;;;19.55;9.48;;;7.20;99.90;;;;;;6257181;22;20009;-86
2023/11/21 03:47:49;;;;;;;20.73;8.68;;;7.20;99.90;;;;;;6257814;22;20020;-86
2023/11/21 03:50:15;;;;;;;20.05;8.52;;;7.20;99.90;;;;;;6258552;22;20037;-87
2023/11/21 03:52:41;;;;;;;16.25;8.45;;;7.20;99.90;;;;;;6256883;22;20341;-86
2023/11/21 03:55:07;;;;;;;14.68;8.00;;;7.20;99.90;;;;;;6255329;22;20010;-86
2023/11/21 03:57:33;;;;;;;18.38;8.07;;;7.20;99.90;;;;;;6259840;22;20007;-86
2023/11/21 03:59:58;;;;;;;23.42;8.35;;;7.30;99.90;;;;;;6259440;22;20037;-86
2023/11/21 04:02:25;;;;;;;20.60;9.70;;;7.30;99.90;;;;;;6156513;22;19997;-86
2023/11/21 04:04:51;;;;;;;22.20;8.50;;;7.30;99.90;;;;;;6256794;22;20436;-86
2023/11/21 04:07:17;;;;;;;17.30;8.93;;;7.30;99.90;;;;;;6258710;22;20346;-85
2023/11/21 04:09:43;;;;;;;16.27;7.55;;;7.30;99.90;;;;;;6259160;22;20025;-86
2023/11/21 04:12:09;;;;;;;16.33;7.90;;;7.30;99.90;;;;;;6258841;22;20001;-85
2023/11/21 04:14:35;;;;;;;28.45;10.63;;;7.30;99.90;;;;;;6242169;22;20050;-86
2023/11/21 04:17:01;;;;;;;23.80;8.88;;;7.30;99.90;;;;;;6258785;22;20010;-86
2023/11/21 04:19:27;;;;;;;20.42;9.02;;;7.30;99.90;;;;;;6257262;22;20024;-86
2023/11/21 04:21:52;;;;;;;21.58;9.07;;;7.30;99.90;;;;;;6155049;23;19998;-86
2023/11/21 04:24:18;;;;;;;23.10;7.93;;;7.30;99.90;;;;;;6258602;22;20010;-86
2023/11/21 04:26:45;;;;;;;21.80;8.82;;;7.30;99.90;;;;;;6260218;22;20009;-86
2023/11/21 04:29:10;;;;;;;21.13;8.70;;;7.30;99.90;;;;;;6259011;22;20316;-86
2023/11/21 04:31:36;;;;;;;33.13;9.48;;;7.30;99.90;;;;;;6257796;22;20006;-86
2023/11/21 04:34:04;;;;;;;19.35;8.85;;;7.30;99.90;;;;;;6257646;22;20482;-85
2023/11/21 04:36:30;;;;;;;15.27;7.25;;;7.30;99.90;;;;;;6258358;22;20480;-86
2023/11/21 04:38:56;;;;;;;21.20;9.05;;;7.30;99.90;;;;;;6259100;22;20012;-85
2023/11/21 04:41:22;;;;;;;24.83;9.75;;;7.30;99.90;;;;;;6259483;22;20001;-86
2023/11/21 04:43:49;;;;;;;29.10;10.18;;;7.30;99.90;;;;;;6259936;22;20059;-85
2023/11/21 04:46:17;;;;;;;22.38;10.05;;;7.30;99.90;;;;;;6258918;22;20443;-86
2023/11/21 04:48:43;;;;;;;17.80;10.27;;;7.30;99.90;;;;;;6259111;22;20017;-86
2023/11/21 04:51:11;;;;;;;18.67;9.60;;;7.30;99.90;;;;;;6262834;22;20005;-85
2023/11/21 04:53:37;;;;;;;22.40;10.13;;;7.30;99.90;;;;;;6258584;22;20059;-86
2023/11/21 04:56:03;;;;;;;17.05;10.35;;;7.30;99.90;;;;;;6258973;22;20010;-86
2023/11/21 04:58:30;;;;;;;28.27;10.40;;;7.20;99.90;;;;;;6258948;22;20377;-86
2023/11/21 05:00:56;;;;;;;26.75;10.93;;;7.20;99.90;;;;;;6259312;22;20002;-85
2023/11/21 05:03:24;;;;;;;22.98;9.93;;;7.20;99.90;;;;;;6258309;22;20005;-86
2023/11/21 05:05:50;;;;;;;27.63;11.38;;;7.20;99.90;;;;;;6258266;22;20044;-86
2023/11/21 05:08:17;;;;;;;25.02;10.00;;;7.20;99.90;;;;;;6258422;22;20088;-85
2023/11/21 05:10:43;;;;;;;28.90;11.05;;;7.10;99.90;;;;;;6257505;22;20350;-86
2023/11/21 05:13:10;;;;;;;20.58;11.40;;;7.10;99.90;;;;;;6257872;22;20086;-86
2023/11/21 05:15:36;;;;;;;20.70;10.50;;;7.10;99.90;;;;;;6235886;22;20044;-85
2023/11/21 05:18:02;;;;;;;28.65;11.07;;;7.10;99.90;;;;;;6258783;22;20002;-86
2023/11/21 05:20:28;;;;;;;26.08;10.90;;;7.10;99.90;;;;;;6259807;22;20029;-85
2023/11/21 05:22:54;;;;;;;27.00;10.80;;;7.10;99.90;;;;;;6259164;22;20336;-86
2023/11/21 05:25:20;;;;;;;19.90;10.18;;;7.10;99.90;;;;;;6257314;22;20009;-85
2023/11/21 05:27:47;;;;;;;22.67;10.10;;;7.10;99.90;;;;;;6259714;22;20021;-85
2023/11/21 05:30:14;;;;;;;25.88;10.18;;;7.00;99.90;;;;;;6260458;22;20016;-86
2023/11/21 05:32:42;;;;;;;20.92;9.98;;;7.10;99.90;;;;;;6260779;22;20101;-86
2023/11/21 05:35:11;;;;;;;26.05;11.45;;;7.00;99.90;;;;;;6260668;22;20009;-86
2023/11/21 05:37:41;;;;;;;19.95;10.25;;;6.90;99.90;;;;;;6261190;22;20006;-86
2023/11/21 05:40:08;;;;;;;23.42;10.88;;;6.90;99.90;;;;;;6263055;22;20013;-86
2023/11/21 05:42:35;;;;;;;21.10;10.55;;;6.90;99.90;;;;;;6262557;22;20647;-86
2023/11/21 05:45:11;;;;;;;28.35;12.10;;;6.90;99.90;;;;;;6262613;22;20005;-87
2023/11/21 05:47:38;;;;;;;31.67;13.27;;;6.80;99.90;;;;;;6263552;22;20059;-86
2023/11/21 05:50:05;;;;;;;30.05;13.18;;;6.90;99.90;;;;;;6263654;22;20065;-86
2023/11/21 05:52:32;;;;;;;29.42;12.40;;;6.90;99.90;;;;;;6261829;22;20077;-86
2023/11/21 05:55:00;;;;;;;36.20;13.07;;;6.90;99.90;;;;;;6261469;22;20036;-85
2023/11/21 05:57:26;;;;;;;26.13;12.02;;;6.90;99.90;;;;;;6261188;22;20009;-86
2023/11/21 05:59:52;;;;;;;27.67;12.00;;;6.90;99.90;;;;;;6262129;22;20134;-85
2023/11/21 06:02:19;;;;;;;30.45;14.13;;;6.90;99.90;;;;;;6262043;22;20366;-85
2023/11/21 06:04:45;;;;;;;38.60;15.18;;;6.90;99.90;;;;;;6261564;22;20376;-85
2023/11/21 06:07:10;;;;;;;35.85;15.30;;;6.90;99.90;;;;;;6262538;22;20006;-85
2023/11/21 06:09:37;;;;;;;35.08;13.18;;;7.00;99.90;;;;;;6261323;22;20015;-86
2023/11/21 06:12:03;;;;;;;31.67;14.90;;;6.90;99.90;;;;;;6260056;22;20009;-86
2023/11/21 06:14:29;;;;;;;41.33;15.13;;;7.00;99.90;;;;;;6259924;22;20010;-86
2023/11/21 06:16:56;;;;;;;38.10;14.73;;;6.90;99.90;;;;;;6259165;22;20018;-86
2023/11/21 06:19:22;;;;;;;42.30;15.10;;;6.90;99.90;;;;;;6257525;22;20006;-85
2023/11/21 06:21:47;;;;;;;38.58;14.93;;;7.00;99.90;;;;;;6258874;22;20005;-86
2023/11/21 06:24:15;;;;;;;47.83;16.55;;;7.00;99.90;;;;;;6258985;22;20088;-85
2023/11/21 06:26:41;;;;;;;49.30;17.45;;;7.00;99.90;;;;;;6258898;22;20082;-85
2023/11/21 06:29:07;;;;;;;54.45;20.33;;;7.00;99.90;;;;;;6257999;22;20459;-86
2023/11/21 06:31:32;;;;;;;50.60;18.35;;;7.00;99.90;;;;;;6258125;22;20013;-86
2023/11/21 06:33:59;;;;;;;50.78;18.67;;;7.00;99.90;;;;;;6258426;22;20001;-86
2023/11/21 06:36:26;;;;;;;53.70;19.02;;;7.10;99.90;;;;;;6257400;22;20009;-85
2023/11/21 06:38:52;;;;;;;60.55;20.33;;;7.10;99.90;;;;;;6258479;22;20092;-85
2023/11/21 06:41:18;;;;;;;60.30;22.23;;;7.10;99.90;;;;;;6257549;22;20001;-86
2023/11/21 06:43:46;;;;;;;56.35;21.23;;;7.20;99.90;;;;;;6258122;22;20058;-86
2023/11/21 06:46:14;;;;;;;48.22;18.40;;;7.20;99.90;;;;;;6256714;22;20009;-86
2023/11/21 06:48:42;;;;;;;63.67;19.92;;;7.20;99.90;;;;;;6258473;22;20056;-86
2023/11/21 06:51:08;;;;;;;56.03;20.50;;;7.20;99.90;;;;;;6259758;22;20009;-86
2023/11/21 06:53:35;;;;;;;59.80;22.52;;;7.20;99.90;;;;;;6260209;22;20389;-85
2023/11/21 06:56:01;;;;;;;65.97;24.80;;;7.20;99.90;;;;;;6260061;22;20013;-85
2023/11/21 06:58:27;;;;;;;60.83;23.63;;;7.20;99.90;;;;;;6260272;22;20009;-85
2023/11/21 07:00:52;;;;;;;61.47;24.02;;;7.20;99.90;;;;;;6260550;22;20006;-86
2023/11/21 07:03:19;;;;;;;48.45;20.00;;;7.20;99.90;;;;;;6261022;22;20012;-86
2023/11/21 07:05:45;;;;;;;45.30;18.10;;;7.30;99.90;;;;;;6259932;22;20029;-86
2023/11/21 07:08:12;;;;;;;47.08;18.08;;;7.30;99.90;;;;;;6260997;22;20017;-85
2023/11/21 07:10:38;;;;;;;42.33;17.23;;;7.30;99.90;;;;;;6260424;22;20044;-86
2023/11/21 07:13:04;;;;;;;39.17;16.42;;;7.30;99.90;;;;;;6262057;22;20006;-86
2023/11/21 07:15:30;;;;;;;44.67;16.35;;;7.30;99.90;;;;;;6261717;22;20009;-86
2023/11/21 07:17:56;;;;;;;33.38;14.57;;;7.30;99.90;;;;;;6260756;22;20008;-85
2023/11/21 07:20:24;;;;;;;31.48;13.45;;;7.40;99.90;;;;;;6260587;22;20006;-86
2023/11/21 07:22:50;;;;;;;40.50;14.65;;;7.40;99.90;;;;;;6261349;22;20021;-86
2023/11/21 07:25:16;;;;;;;42.67;16.02;;;7.40;99.90;;;;;;6262576;22;20005;-86
2023/11/21 07:27:41;;;;;;;35.92;14.90;;;7.40;99.90;;;;;;6260329;22;20012;-85
2023/11/21 07:30:09;;;;;;;36.83;13.38;;;7.40;99.90;;;;;;6260617;22;20429;-86
2023/11/21 07:32:35;;;;;;;30.15;12.35;;;7.50;99.90;;;;;;6260466;22;20006;-85
2023/11/21 07:35:01;;;;;;;37.13;13.70;;;7.40;99.90;;;;;;6259867;22;20066;-85
2023/11/21 07:37:29;;;;;;;39.42;14.77;;;7.50;99.90;;;;;;6260130;22;20016;-85
2023/11/21 07:39:56;;;;;;;37.08;15.25;;;7.40;99.90;;;;;;6260527;22;20021;-86
2023/11/21 07:42:27;;;;;;;40.55;15.27;;;7.50;99.90;;;;;;6260682;22;20006;-86
2023/11/21 07:44:53;;;;;;;35.45;14.80;;;7.50;99.90;;;;;;6260229;22;20055;-86
2023/11/21 07:47:18;;;;;;;35.45;13.80;;;7.50;99.90;;;;;;6259456;22;20378;-86
2023/11/21 07:49:44;;;;;;;39.50;12.55;;;7.50;99.90;;;;;;6260549;22;20454;-86
2023/11/21 07:52:10;;;;;;;33.95;13.40;;;7.60;99.90;;;;;;6258968;22;20013;-86
2023/11/21 07:54:36;;;;;;;33.88;12.88;;;7.60;99.90;;;;;;6260638;22;20454;-86
2023/11/21 07:57:04;;;;;;;26.25;12.80;;;7.70;99.90;;;;;;6259373;22;20009;-87
2023/11/21 07:59:30;;;;;;;26.92;12.40;;;7.70;99.90;;;;;;6260433;22;20267;-86
2023/11/21 08:01:56;;;;;;;28.02;11.23;;;7.60;99.90;;;;;;6259946;22;20081;-86
2023/11/21 08:04:22;;;;;;;25.85;11.35;;;7.60;99.90;;;;;;6259129;22;20005;-86
2023/11/21 08:06:47;;;;;;;29.00;11.77;;;7.70;99.90;;;;;;6260704;22;20009;-86
2023/11/21 08:09:15;;;;;;;28.33;12.05;;;7.80;99.90;;;;;;6259658;22;20006;-86
2023/11/21 08:11:42;;;;;;;23.55;11.30;;;7.80;99.90;;;;;;6259580;22;20035;-85
2023/11/21 08:14:07;;;;;;;23.88;10.75;;;7.90;99.90;;;;;;6260381;22;20005;-86
2023/11/21 08:16:33;;;;;;;27.88;11.13;;;7.80;99.90;;;;;;6259291;22;20733;-86
2023/11/21 08:18:59;;;;;;;21.70;10.07;;;7.90;99.90;;;;;;6260313;22;20459;-86
2023/11/21 08:21:29;;;;;;;18.23;10.52;;;7.90;99.90;;;;;;6259887;22;20036;-85
2023/11/21 08:23:55;;;;;;;24.95;11.50;;;8.00;99.90;;;;;;6260141;22;20455;-86
2023/11/21 08:26:21;;;;;;;24.42;11.70;;;8.10;99.90;;;;;;6260069;22;20029;-86
2023/11/21 08:28:48;;;;;;;21.02;10.82;;;8.20;99.90;;;;;;6259699;22;20001;-85
2023/11/21 08:31:14;;;;;;;24.83;11.18;;;8.30;99.90;;;;;;6259187;22;20010;-86
2023/11/21 08:33:40;;;;;;;24.08;10.93;;;8.50;99.90;;;;;;6260047;22;20044;-86
2023/11/21 08:36:10;;;;;;;36.55;11.80;;;8.60;99.90;;;;;;6260332;22;20006;-86
2023/11/21 08:38:40;;;;;;;21.90;12.10;;;8.90;99.90;;;;;;6258889;22;20499;-85
2023/11/21 08:41:07;;;;;;;25.23;11.57;;;9.00;99.90;;;;;;6259537;22;20002;-86
2023/11/21 08:43:39;;;;;;;30.98;13.77;;;9.10;99.90;;;;;;6262064;22;20002;-86
2023/11/21 08:46:08;;;;;;;33.40;15.57;;;9.20;99.90;;;;;;6260103;22;20072;-85
2023/11/21 08:48:36;;;;;;;35.13;14.35;;;9.30;99.90;;;;;;6258877;22;20024;-86
2023/11/21 08:51:03;;;;;;;32.78;13.18;;;9.50;99.90;;;;;;6259612;22;20033;-86
2023/11/21 08:53:30;;;;;;;33.35;14.73;;;9.40;99.90;;;;;;6258581;22;20339;-86
2023/11/21 08:56:00;;;;;;;29.05;12.95;;;9.30;99.90;;;;;;6259770;22;20016;-86
2023/11/21 08:58:26;;;;;;;33.47;14.57;;;9.40;99.90;;;;;;6258597;22;20005;-85
2023/11/21 09:00:51;;;;;;;41.60;13.90;;;9.50;99.90;;;;;;6259261;22;20063;-85
2023/11/21 09:03:23;;;;;;;37.00;14.88;;;9.40;99.90;;;;;;6257729;22;20610;-85
2023/11/21 09:05:48;;;;;;;35.00;14.88;;;9.40;99.90;;;;;;6257425;22;20451;-85
2023/11/21 09:08:14;;;;;;;35.33;16.38;;;9.50;99.90;;;;;;6155597;23;20044;-86
2023/11/21 09:10:42;;;;;;;36.08;15.10;;;9.40;99.90;;;;;;6258862;22;20009;-86
2023/11/21 09:13:08;;;;;;;33.20;14.35;;;9.50;99.90;;;;;;6257931;22;20483;-86
2023/11/21 09:15:35;;;;;;;35.67;15.10;;;9.60;99.90;;;;;;6257547;22;20033;-85
2023/11/21 09:18:01;;;;;;;33.28;15.63;;;9.60;99.90;;;;;;6257610;22;20084;-86
2023/11/21 09:20:28;;;;;;;28.20;13.35;;;9.60;99.90;;;;;;6258167;22;20016;-85
2023/11/21 09:22:55;;;;;;;36.92;14.90;;;9.60;99.90;;;;;;6257140;22;20063;-86
2023/11/21 09:25:21;;;;;;;40.65;16.13;;;9.70;99.90;;;;;;6257539;22;20020;-86
2023/11/21 09:27:47;;;;;;;36.75;15.23;;;9.70;99.90;;;;;;6257052;22;20032;-86
2023/11/21 09:30:14;;;;;;;30.77;14.77;;;9.70;99.90;;;;;;6257658;22;20466;-87
2023/11/21 09:32:40;;;;;;;41.35;15.70;;;9.80;99.90;;;;;;6256093;22;20052;-87
2023/11/21 09:35:09;;;;;;;42.75;16.17;;;9.80;99.90;;;;;;6257616;22;20006;-88
2023/11/21 09:37:37;;;;;;;35.42;15.60;;;9.80;99.90;;;;;;6256872;22;20078;-87
2023/11/21 09:40:05;;;;;;;41.22;16.27;;;9.90;99.90;;;;;;6257210;22;20084;-88
2023/11/21 09:42:38;;;;;;;37.20;15.07;;;9.90;99.90;;;;;;6207834;22;20408;-87
2023/11/21 09:45:20;;;;;;;;;;;9.90;99.90;;;;;;6253903;22;20008;-88
2023/11/21 09:47:47;;;;;;;31.23;14.40;;;10.00;99.90;;;;;;6255681;22;20319;-87
2023/11/21 09:50:21;;;;;;;32.28;15.05;;;10.00;99.90;;;;;;6256106;22;20006;-87
2023/11/21 09:53:14;;;;;;;36.50;15.75;;;9.90;99.90;;;;;;6256867;22;20084;-87
2023/11/21 09:55:43;;;;;;;33.75;14.88;;;10.00;99.90;;;;;;6256259;22;20014;-87
2023/11/21 09:58:13;;;;;;;32.80;15.73;;;9.90;99.90;;;;;;6256159;22;20006;-87
2023/11/21 10:00:44;;;;;;;36.13;15.15;;;9.90;99.90;;;;;;6255827;22;20012;-87
2023/11/21 10:03:11;;;;;;;36.80;14.48;;;10.00;99.90;;;;;;6256732;22;20005;-87
2023/11/21 10:05:38;;;;;;;36.30;16.15;;;10.00;99.90;;;;;;6258092;22;20044;-87
2023/11/21 10:08:07;;;;;;;35.25;14.85;;;9.90;99.90;;;;;;6256410;22;20017;-87
2023/11/21 10:10:35;;;;;;;38.70;14.45;;;10.00;99.90;;;;;;6256872;22;20002;-87
2023/11/21 10:13:07;;;;;;;34.85;14.55;;;10.10;99.90;;;;;;6256650;22;20033;-87
2023/11/21 10:15:36;;;;;;;32.80;14.07;;;10.20;99.90;;;;;;6257137;22;20001;-87
2023/11/21 10:18:04;;;;;;;33.30;14.32;;;10.20;99.90;;;;;;6257525;22;20685;-87
2023/11/21 10:20:33;;;;;;;27.35;13.73;;;10.20;99.90;;;;;;6257614;22;20033;-88
2023/11/21 10:23:01;;;;;;;34.53;15.35;;;10.20;99.90;;;;;;6257980;22;20006;-87
2023/11/21 10:25:27;;;;;;;30.08;12.98;;;10.20;99.90;;;;;;6258085;22;20171;-86
2023/11/21 10:28:01;;;;;;;31.67;14.20;;;10.30;99.90;;;;;;6257605;22;20009;-86
2023/11/21 10:30:36;;;;;;;48.53;13.95;;;10.30;99.90;;;;;;6257931;22;20039;-86
2023/11/21 10:33:03;;;;;;;25.90;13.18;;;10.30;99.90;;;;;;6258492;22;20016;-87
2023/11/21 10:35:41;;;;;;;34.53;13.35;;;10.50;99.90;;;;;;6257515;22;20310;-87
2023/11/21 10:38:10;;;;;;;33.58;12.50;;;10.50;99.90;;;;;;6258378;22;19997;-87
2023/11/21 10:40:42;;;;;;;28.75;12.25;;;10.50;99.90;;;;;;6261260;22;20002;-87
2023/11/21 10:43:11;;;;;;;33.78;14.43;;;10.50;99.90;;;;;;6257433;22;20012;-87
2023/11/21 10:45:40;;;;;;;34.38;13.80;;;10.50;99.90;;;;;;6255361;22;20093;-87
2023/11/21 10:48:16;;;;;;;29.08;13.40;;;10.50;99.90;;;;;;6255955;22;20688;-87
2023/11/21 10:50:43;;;;;;;37.35;15.68;;;10.60;99.90;;;;;;6257496;22;20073;-87
2023/11/21 10:53:12;;;;;;;39.72;15.45;;;10.70;99.90;;;;;;6256641;22;20033;-87
2023/11/21 10:55:38;;;;;;;35.20;14.25;;;10.70;99.90;;;;;;6256541;22;20009;-87
2023/11/21 10:58:05;;;;;;;28.00;14.50;;;10.70;99.90;;;;;;6257025;22;20005;-86
2023/11/21 11:00:35;;;;;;;31.40;13.68;;;10.80;99.90;;;;;;6257367;22;20507;-87
2023/11/21 11:03:03;;;;;;;31.63;13.93;;;10.70;99.90;;;;;;6256030;22;20002;-87
2023/11/21 11:05:32;;;;;;;34.80;14.55;;;10.70;99.90;;;;;;6257810;22;20014;-87
2023/11/21 11:08:04;;;;;;;37.03;14.48;;;10.70;99.90;;;;;;6256143;22;20458;-87
2023/11/21 11:10:31;;;;;;;41.53;15.40;;;10.70;99.90;;;;;;6153728;22;20009;-86
2023/11/21 11:12:59;;;;;;;36.65;16.13;;;10.60;99.90;;;;;;6256605;22;20008;-87
2023/11/21 11:15:26;;;;;;;43.83;15.98;;;10.50;99.90;;;;;;6257055;22;20028;-88
2023/11/21 11:17:57;;;;;;;36.20;15.38;;;10.40;99.90;;;;;;6228751;22;20018;-87
2023/11/21 11:20:34;;;;;;;32.35;15.20;;;10.40;99.90;;;;;;6257709;22;20010;-88
2023/11/21 11:23:15;;;;;;;36.78;14.52;;;10.40;99.90;;;;;;6259658;22;20041;-87
2023/11/21 11:26:02;;;;;;;35.47;14.38;;;10.40;99.90;;;;;;6256466;22;20092;-86
2023/11/21 11:28:39;;;;;;;36.28;16.25;;;10.30;99.90;;;;;;6256545;22;20601;-87
2023/11/21 11:31:39;;;;;;;39.88;17.08;;;10.30;99.90;;;;;;6257280;22;20010;-88
2023/11/21 11:34:32;;;;;;;35.88;16.42;;;10.20;99.90;;;;;;6257454;22;20014;-87
2023/11/21 11:37:03;;;;;;;48.67;18.05;;;10.20;99.90;;;;;;6236754;22;20019;-87
2023/11/21 11:39:39;;;;;;;38.40;16.48;;;10.30;99.90;;;;;;6257038;22;20020;-86
2023/11/21 11:42:16;;;;;;;42.78;16.92;;;10.10;99.90;;;;;;6256767;22;20096;-87
2023/11/21 11:45:04;;;;;;;48.80;18.35;;;10.10;99.90;;;;;;6256307;22;20080;-87
2023/11/21 11:47:32;;;;;;;44.17;18.00;;;10.10;99.90;;;;;;6153437;22;20321;-87
2023/11/21 11:50:20;;;;;;;39.55;15.48;;;10.20;99.90;;;;;;6256326;22;20063;-87
2023/11/21 11:52:52;;;;;;;42.28;15.82;;;10.30;99.90;;;;;;6257570;22;20006;-88
2023/11/21 11:55:20;;;;;;;33.60;15.48;;;10.40;99.90;;;;;;6257295;22;20010;-88
2023/11/21 11:57:52;;;;;;;39.13;15.20;;;10.40;99.90;;;;;;6256762;22;20013;-87
2023/11/21 12:00:28;;;;;;;41.88;15.90;;;10.40;99.90;;;;;;6257363;22;20006;-87
2023/11/21 12:02:59;;;;;;;41.40;16.20;;;10.50;99.90;;;;;;6261074;22;20603;-89
2023/11/21 12:05:32;;;;;;;40.70;16.35;;;10.60;99.90;;;;;;6258687;22;20001;-87
2023/11/21 12:08:01;;;;;;;38.72;16.90;;;10.60;99.90;;;;;;6256632;22;19997;-87
2023/11/21 12:11:10;;;;;;;38.08;15.57;;;10.60;99.90;;;;;;6254762;22;20007;-89
2023/11/21 12:13:38;;;;;;;41.53;16.80;;;10.70;99.90;;;;;;6187308;22;20087;-88
2023/11/21 12:16:10;;;;;;;39.22;14.90;;;10.70;99.90;;;;;;6257053;22;20692;-88
2023/11/21 12:18:44;;;;;;;31.52;15.15;;;10.80;99.90;;;;;;6225512;22;20028;-88
2023/11/21 12:21:20;;;;;;;39.75;16.33;;;10.80;99.90;;;;;;6257064;22;20780;-87
2023/11/21 12:24:00;;;;;;;38.88;16.58;;;10.90;99.90;;;;;;6257378;22;20044;-88
2023/11/21 12:26:26;;;;;;;35.67;15.55;;;10.90;99.90;;;;;;6256319;22;20010;-88
2023/11/21 12:28:55;;;;;;;30.13;14.02;;;11.10;99.90;;;;;;6256164;22;20033;-88
2023/11/21 12:31:24;;;;;;;37.22;16.02;;;11.20;99.90;;;;;;6150097;22;20104;-88
2023/11/21 12:34:44;;;;;;;37.08;15.95;;;11.20;99.90;;;;;;6256808;22;20093;-89
2023/11/21 12:38:34;;;;;;;;;;;;;;;;;;;;;
2023/11/21 12:41:21;;;;;;;34.92;14.40;;;11.10;99.90;;;;;;6159798;23;20036;-88
2023/11/21 12:43:47;;;;;;;36.55;15.05;;;11.00;99.90;;;;;;6131623;23;20006;-88
2023/11/21 12:46:30;;;;;;;36.05;15.43;;;11.00;99.90;;;;;;6148857;22;20359;-89
2023/11/21 12:48:57;;;;;;;37.78;15.93;;;11.00;99.90;;;;;;6256750;22;20092;-88